createdAt,value
2019-03-25T00:00:56.743Z,10.30
2019-03-25T00:03:27.973Z,10.37
2019-03-25T00:05:58.811Z,11.90
2019-03-25T00:08:29.767Z,11.33
2019-03-25T00:11:01.127Z,10.67
2019-03-25T00:13:32.006Z,10.53
2019-03-25T00:16:03.259Z,10.97
2019-03-25T00:18:34.563Z,10.57
2019-03-25T00:21:05.491Z,11.70
2019-03-25T00:23:36.399Z,11.00
2019-03-25T00:26:07.355Z,10.70
2019-03-25T00:28:38.263Z,10.47
2019-03-25T00:31:09.392Z,11.10
2019-03-25T00:33:40.233Z,9.47
2019-03-25T00:36:11.113Z,10.10
2019-03-25T00:38:42.421Z,9.23
2019-03-25T00:41:13.558Z,8.30
2019-03-25T00:43:44.788Z,8.57
2019-03-25T00:46:15.871Z,8.33
2019-03-25T00:48:47.218Z,10.90
2019-03-25T00:51:18.479Z,11.40
2019-03-25T00:53:49.486Z,12.00
2019-03-25T00:56:20.445Z,10.17
2019-03-25T00:58:51.621Z,11.20
2019-03-25T01:01:22.626Z,9.67
2019-03-25T01:03:53.673Z,8.20
2019-03-25T01:06:24.871Z,9.00
2019-03-25T01:08:56.197Z,9.23
2019-03-25T01:11:27.370Z,9.63
2019-03-25T01:13:58.665Z,12.97
2019-03-25T01:16:30.002Z,11.10
2019-03-25T01:19:01.046Z,13.70
2019-03-25T01:21:32.298Z,13.43
2019-03-25T01:24:03.574Z,9.77
2019-03-25T01:26:34.982Z,10.30
2019-03-25T01:29:06.100Z,11.47
2019-03-25T01:31:37.066Z,9.63
2019-03-25T01:34:08.087Z,12.00
2019-03-25T01:36:39.217Z,12.10
2019-03-25T01:39:10.549Z,12.30
2019-03-25T01:41:41.496Z,11.17
2019-03-25T01:44:12.683Z,11.40
2019-03-25T01:46:43.511Z,12.03
2019-03-25T01:49:15.628Z,12.77
2019-03-25T01:51:46.797Z,11.93
2019-03-25T01:54:17.686Z,11.70
2019-03-25T01:56:48.633Z,13.00
2019-03-25T01:59:19.888Z,11.93
2019-03-25T02:01:50.770Z,11.77
2019-03-25T02:04:21.744Z,12.03
2019-03-25T02:06:52.704Z,9.90
2019-03-25T02:09:23.769Z,10.00
2019-03-25T02:11:54.930Z,9.13
2019-03-25T02:14:25.803Z,8.53
2019-03-25T02:16:56.626Z,8.07
2019-03-25T02:19:27.933Z,9.30
2019-03-25T02:21:58.989Z,8.23
2019-03-25T02:24:30.099Z,9.73
2019-03-25T02:27:01.702Z,9.63
2019-03-25T02:29:32.626Z,10.37
2019-03-25T02:32:03.466Z,9.13
2019-03-25T02:34:35.559Z,8.70
2019-03-25T02:37:06.402Z,10.57
2019-03-25T02:39:37.504Z,13.27
2019-03-25T02:42:08.729Z,10.70
2019-03-25T02:44:39.852Z,9.53
2019-03-25T02:47:11.057Z,8.87
2019-03-25T02:49:42.291Z,8.07
2019-03-25T02:52:13.119Z,9.80
2019-03-25T02:54:44.296Z,11.67
2019-03-25T02:57:15.639Z,18.40
2019-03-25T02:59:46.449Z,9.87
2019-03-25T03:02:17.369Z,8.30
2019-03-25T03:04:48.307Z,12.53
2019-03-25T03:07:19.279Z,10.00
2019-03-25T03:09:50.412Z,10.63
2019-03-25T03:12:21.270Z,8.97
2019-03-25T03:14:53.381Z,20.13
2019-03-25T03:17:24.902Z,11.73
2019-03-25T03:19:55.862Z,11.43
2019-03-25T03:22:26.852Z,14.20
2019-03-25T03:24:58.131Z,9.90
2019-03-25T03:27:29.995Z,20.60
2019-03-25T03:30:01.379Z,10.27
2019-03-25T03:32:32.619Z,10.27
2019-03-25T03:35:03.445Z,10.17
2019-03-25T03:37:34.392Z,11.00
2019-03-25T03:40:06.088Z,10.83
2019-03-25T03:42:37.065Z,11.20
2019-03-25T03:45:09.347Z,11.77
2019-03-25T03:47:40.619Z,11.00
2019-03-25T03:50:16.404Z,10.40
2019-03-25T03:52:47.546Z,9.87
2019-03-25T03:55:18.752Z,12.73
2019-03-25T03:57:49.796Z,9.77
2019-03-25T04:00:29.256Z,10.93
2019-03-25T04:03:00.513Z,10.87
2019-03-25T04:05:31.717Z,10.63
2019-03-25T04:08:02.643Z,11.70
2019-03-25T04:10:33.648Z,11.30
2019-03-25T04:13:04.748Z,11.63
2019-03-25T04:15:35.847Z,8.73
2019-03-25T04:18:07.059Z,13.37
2019-03-25T04:20:38.072Z,11.40
2019-03-25T04:23:09.145Z,15.53
2019-03-25T04:25:40.473Z,12.10
2019-03-25T04:28:11.388Z,10.00
2019-03-25T04:30:42.426Z,14.20
2019-03-25T04:33:14.330Z,10.33
2019-03-25T04:35:45.206Z,11.90
2019-03-25T04:38:16.147Z,10.73
2019-03-25T04:40:47.428Z,10.67
2019-03-25T04:43:18.465Z,10.03
2019-03-25T04:45:49.737Z,12.17
2019-03-25T04:48:20.874Z,11.03
2019-03-25T04:50:51.865Z,13.00
2019-03-25T04:53:23.032Z,11.43
2019-03-25T04:55:54.920Z,10.97
2019-03-25T04:58:25.855Z,12.50
2019-03-25T05:00:57.215Z,11.27
2019-03-25T05:03:29.018Z,12.00
2019-03-25T05:06:00.068Z,11.80
2019-03-25T05:08:31.321Z,22.13
2019-03-25T05:11:03.913Z,18.30
2019-03-25T05:13:34.719Z,10.50
2019-03-25T05:16:06.979Z,12.10
2019-03-25T05:18:38.091Z,12.67
2019-03-25T05:21:10.523Z,13.97
2019-03-25T05:23:41.439Z,15.97
2019-03-25T05:26:12.504Z,14.07
2019-03-25T05:28:43.594Z,13.13
2019-03-25T05:31:14.746Z,15.13
2019-03-25T05:33:45.552Z,17.00
2019-03-25T05:36:16.521Z,14.53
2019-03-25T05:38:48.648Z,16.17
2019-03-25T05:41:19.734Z,14.27
2019-03-25T05:43:50.871Z,15.10
2019-03-25T05:46:23.149Z,16.13
2019-03-25T05:48:53.989Z,15.40
2019-03-25T05:51:25.054Z,16.30
2019-03-25T05:53:56.219Z,15.07
2019-03-25T05:56:27.158Z,16.33
2019-03-25T05:58:58.257Z,15.60
2019-03-25T06:01:29.432Z,16.03
2019-03-25T06:04:00.311Z,17.17
2019-03-25T06:06:31.205Z,19.07
2019-03-25T06:09:02.411Z,16.40
2019-03-25T06:11:33.670Z,19.43
2019-03-25T06:14:04.628Z,19.90
2019-03-25T06:16:35.701Z,21.33
2019-03-25T06:19:06.846Z,21.03
2019-03-25T06:21:37.940Z,21.07
2019-03-25T06:24:08.983Z,24.57
2019-03-25T06:26:39.904Z,23.87
2019-03-25T06:29:12.693Z,23.60
2019-03-25T06:31:43.902Z,21.77
2019-03-25T06:34:14.763Z,20.47
2019-03-25T06:36:45.728Z,22.20
2019-03-25T06:39:16.681Z,21.50
2019-03-25T06:41:47.682Z,22.97
2019-03-25T06:44:18.780Z,22.50
2019-03-25T06:46:49.958Z,22.93
2019-03-25T06:49:20.866Z,22.77
2019-03-25T06:51:51.871Z,18.67
2019-03-25T06:54:22.905Z,20.10
2019-03-25T06:56:54.134Z,21.00
2019-03-25T06:59:25.279Z,20.27
2019-03-25T07:01:56.238Z,18.73
2019-03-25T07:04:27.471Z,18.97
2019-03-25T07:06:58.808Z,19.10
2019-03-25T07:09:29.674Z,19.10
2019-03-25T07:12:00.746Z,21.77
2019-03-25T07:14:31.903Z,18.67
2019-03-25T07:17:02.746Z,21.07
2019-03-25T07:19:33.694Z,20.27
2019-03-25T07:22:04.942Z,20.90
2019-03-25T07:24:35.820Z,18.93
2019-03-25T07:27:07.025Z,19.10
2019-03-25T07:29:37.869Z,20.03
2019-03-25T07:32:09.259Z,18.13
2019-03-25T07:34:41.341Z,20.33
2019-03-25T07:37:12.275Z,18.30
2019-03-25T07:39:43.250Z,17.80
2019-03-25T07:42:14.415Z,19.13
2019-03-25T07:44:45.249Z,19.67
2019-03-25T07:47:17.102Z,20.97
2019-03-25T07:49:48.261Z,18.13
2019-03-25T07:52:19.303Z,18.57
2019-03-25T07:54:50.208Z,18.80
2019-03-25T07:57:21.482Z,18.50
2019-03-25T07:59:52.702Z,18.03
2019-03-25T08:02:23.988Z,18.33
2019-03-25T08:04:55.075Z,17.60
2019-03-25T08:07:26.269Z,17.33
2019-03-25T08:09:58.228Z,18.17
2019-03-25T08:12:29.423Z,18.97
2019-03-25T08:15:00.450Z,18.80
2019-03-25T08:17:31.423Z,16.07
2019-03-25T08:20:02.273Z,15.10
2019-03-25T08:22:33.472Z,16.53
2019-03-25T08:25:04.584Z,14.10
2019-03-25T08:27:35.444Z,15.47
2019-03-25T08:30:09.472Z,12.97
2019-03-25T08:32:40.507Z,14.10
2019-03-25T08:37:49.764Z,16.70
2019-03-25T08:40:20.945Z,18.97
2019-03-25T08:42:53.230Z,16.03
2019-03-25T08:45:24.715Z,16.30
2019-03-25T08:47:55.664Z,18.53
2019-03-25T08:50:26.603Z,18.10
2019-03-25T08:52:57.751Z,17.70
2019-03-25T08:55:28.645Z,19.17
2019-03-25T08:58:11.210Z,19.27
2019-03-25T09:00:32.798Z,16.27
2019-03-25T09:03:03.925Z,18.77
2019-03-25T09:05:35.044Z,18.57
2019-03-25T09:08:06.023Z,18.40
2019-03-25T09:10:37.217Z,19.23
2019-03-25T09:13:08.442Z,18.07
2019-03-25T09:15:39.301Z,18.17
2019-03-25T09:18:10.545Z,19.53
2019-03-25T09:20:41.732Z,19.10
2019-03-25T09:23:12.634Z,18.10
2019-03-25T09:25:43.692Z,18.80
2019-03-25T09:28:23.646Z,19.37
2019-03-25T09:31:19.897Z,18.20
2019-03-25T09:33:51.050Z,17.63
2019-03-25T09:36:24.935Z,17.07
2019-03-25T09:38:55.967Z,17.37
2019-03-25T09:41:27.166Z,18.17
2019-03-25T09:43:58.429Z,19.23
2019-03-25T09:46:29.370Z,19.03
2019-03-25T09:49:00.972Z,17.87
2019-03-25T09:51:31.866Z,19.63
2019-03-25T09:54:02.796Z,17.80
2019-03-25T09:56:33.843Z,16.77
2019-03-25T09:59:05.211Z,18.00
2019-03-25T10:01:36.054Z,16.67
2019-03-25T10:04:07.721Z,17.40
2019-03-25T10:06:38.952Z,17.43
2019-03-25T10:09:12.300Z,17.87
2019-03-25T10:11:43.142Z,17.10
2019-03-25T10:14:17.299Z,18.77
2019-03-25T10:16:48.611Z,20.57
2019-03-25T10:19:19.985Z,18.70
2019-03-25T10:21:50.831Z,17.07
2019-03-25T10:24:27.634Z,17.63
2019-03-25T10:26:54.920Z,18.57
2019-03-25T10:29:25.799Z,19.43
2019-03-25T10:31:56.894Z,19.27
2019-03-25T10:34:27.968Z,16.30
2019-03-25T10:36:58.833Z,18.10
2019-03-25T10:39:30.072Z,17.83
2019-03-25T10:42:01.008Z,15.93
2019-03-25T10:44:32.480Z,16.93
2019-03-25T10:47:03.780Z,15.83
2019-03-25T10:49:34.953Z,15.60
2019-03-25T10:52:06.145Z,14.67
2019-03-25T10:54:37.764Z,17.20
2019-03-25T10:57:08.677Z,14.63
2019-03-25T10:59:39.756Z,15.03
2019-03-25T11:02:11.086Z,14.90
2019-03-25T11:04:43.071Z,13.30
2019-03-25T11:07:14.217Z,13.93
2019-03-25T11:09:45.583Z,14.00
2019-03-25T11:12:16.438Z,12.73
2019-03-25T11:14:47.743Z,12.82
2019-03-25T11:17:18.695Z,12.83
2019-03-25T11:19:50.115Z,14.60
2019-03-25T11:22:21.255Z,14.95
2019-03-25T11:24:52.304Z,12.10
2019-03-25T11:27:23.226Z,12.28
2019-03-25T11:29:54.385Z,12.67
2019-03-25T11:32:25.213Z,12.30
2019-03-25T11:34:56.092Z,13.08
2019-03-25T11:37:27.128Z,12.58
2019-03-25T11:39:58.233Z,12.95
2019-03-25T11:42:29.167Z,12.35
2019-03-25T11:45:01.365Z,10.63
2019-03-25T11:47:32.591Z,11.28
2019-03-25T11:50:04.010Z,10.65
2019-03-25T11:52:34.848Z,12.98
2019-03-25T11:55:06.581Z,11.67
2019-03-25T11:57:38.805Z,11.70
2019-03-25T12:00:10.346Z,11.80
2019-03-25T12:02:41.195Z,10.77
2019-03-25T12:05:12.576Z,10.40
2019-03-25T12:07:43.590Z,9.50
2019-03-25T12:10:14.703Z,10.20
2019-03-25T12:12:45.838Z,10.20
2019-03-25T12:15:17.299Z,9.50
2019-03-25T12:17:48.207Z,10.35
2019-03-25T12:20:19.447Z,9.65
2019-03-25T12:22:50.743Z,8.65
2019-03-25T12:25:21.708Z,10.63
2019-03-25T12:27:52.948Z,7.75
2019-03-25T12:30:25.389Z,7.58
2019-03-25T12:33:03.888Z,7.12
2019-03-25T12:35:29.976Z,7.10
2019-03-25T12:38:01.166Z,7.60
2019-03-25T12:40:32.161Z,7.08
2019-03-25T12:43:02.975Z,8.38
2019-03-25T12:45:33.964Z,8.57
2019-03-25T12:48:05.326Z,11.07
2019-03-25T12:50:37.377Z,8.20
2019-03-25T12:53:08.314Z,8.13
2019-03-25T12:55:39.540Z,8.13
2019-03-25T12:58:10.647Z,8.40
2019-03-25T13:00:43.223Z,7.97
2019-03-25T13:03:14.064Z,7.73
2019-03-25T13:05:46.347Z,8.97
2019-03-25T13:08:17.473Z,7.10
2019-03-25T13:10:49.608Z,8.03
2019-03-25T13:13:20.542Z,7.12
2019-03-25T13:15:51.526Z,7.83
2019-03-25T13:18:22.372Z,7.50
2019-03-25T13:20:53.514Z,8.53
2019-03-25T13:23:24.449Z,8.20
2019-03-25T13:25:55.640Z,8.38
2019-03-25T13:28:26.600Z,8.13
2019-03-25T13:30:57.515Z,7.72
2019-03-25T13:33:29.495Z,8.10
2019-03-25T13:36:00.712Z,8.95
2019-03-25T13:38:31.565Z,7.92
2019-03-25T13:41:02.819Z,8.35
2019-03-25T13:43:34.072Z,8.33
2019-03-25T13:46:05.918Z,7.67
2019-03-25T13:48:37.801Z,7.55
2019-03-25T13:51:08.821Z,8.23
2019-03-25T13:53:39.848Z,7.35
2019-03-25T13:56:11.159Z,7.62
2019-03-25T13:58:42.219Z,6.92
2019-03-25T14:01:13.319Z,7.62
2019-03-25T14:03:44.393Z,8.15
2019-03-25T14:06:15.441Z,7.25
2019-03-25T14:08:46.410Z,6.55
2019-03-25T14:11:17.836Z,8.20
2019-03-25T14:13:49.649Z,7.78
2019-03-25T14:16:20.594Z,6.70
2019-03-25T14:18:51.545Z,6.30
2019-03-25T14:21:22.452Z,8.00
2019-03-25T14:23:53.495Z,7.33
2019-03-25T14:26:24.668Z,7.63
2019-03-25T14:28:55.562Z,6.77
2019-03-25T14:31:26.791Z,7.40
2019-03-25T14:33:57.721Z,6.67
2019-03-25T14:36:29.614Z,5.70
2019-03-25T14:39:00.979Z,5.57
2019-03-25T14:41:33.552Z,6.07
2019-03-25T14:44:04.510Z,5.63
2019-03-25T14:46:35.762Z,6.70
2019-03-25T14:49:07.067Z,6.13
2019-03-25T14:51:37.918Z,5.20
2019-03-25T14:54:08.868Z,5.90
2019-03-25T14:56:40.137Z,5.70
2019-03-25T14:59:12.778Z,5.80
2019-03-25T15:01:44.075Z,5.33
2019-03-25T15:04:14.964Z,6.30
2019-03-25T15:06:46.132Z,5.90
2019-03-25T15:09:17.314Z,6.90
2019-03-25T15:11:48.217Z,6.87
2019-03-25T15:14:19.171Z,6.33
2019-03-25T15:16:50.218Z,5.87
2019-03-25T15:19:22.006Z,6.63
2019-03-25T15:21:53.012Z,5.60
2019-03-25T15:24:24.078Z,5.73
2019-03-25T15:26:54.957Z,6.17
2019-03-25T15:29:25.894Z,7.23
2019-03-25T15:31:56.970Z,6.77
2019-03-25T15:34:28.160Z,6.23
2019-03-25T15:36:59.376Z,7.40
2019-03-25T15:39:30.487Z,6.90
2019-03-25T15:42:01.564Z,6.27
2019-03-25T15:44:32.826Z,6.57
2019-03-25T15:47:03.721Z,6.87
2019-03-25T15:49:34.654Z,6.50
2019-03-25T15:52:06.414Z,6.60
2019-03-25T15:54:37.474Z,7.43
2019-03-25T15:57:09.425Z,7.07
2019-03-25T15:59:41.032Z,7.87
2019-03-25T16:02:12.545Z,7.13
2019-03-25T16:04:43.846Z,6.83
2019-03-25T16:07:15.169Z,7.13
2019-03-25T16:09:46.278Z,6.03
2019-03-25T16:12:17.452Z,6.97
2019-03-25T16:14:48.410Z,8.63
2019-03-25T16:17:19.315Z,7.40
2019-03-25T16:19:50.497Z,8.90
2019-03-25T16:22:21.404Z,9.97
2019-03-25T16:24:52.240Z,10.47
2019-03-25T16:27:23.459Z,8.20
2019-03-25T16:29:54.540Z,10.20
2019-03-25T16:32:25.483Z,8.93
2019-03-25T16:34:56.775Z,9.30
2019-03-25T16:37:28.325Z,9.17
2019-03-25T16:39:59.156Z,9.70
2019-03-25T16:42:30.137Z,9.73
2019-03-25T16:45:01.659Z,9.07
2019-03-25T16:47:32.817Z,8.70
2019-03-25T16:50:03.853Z,10.17
2019-03-25T16:52:35.082Z,9.77
2019-03-25T16:55:06.352Z,8.77
2019-03-25T16:57:38.608Z,12.17
2019-03-25T17:00:10.176Z,14.73
2019-03-25T17:02:42.180Z,17.03
2019-03-25T17:05:13.017Z,19.27
2019-03-25T17:07:44.082Z,22.33
2019-03-25T17:10:15.155Z,21.17
2019-03-25T17:12:46.592Z,19.37
2019-03-25T17:15:17.419Z,19.80
2019-03-25T17:17:48.319Z,20.07
2019-03-25T17:20:19.490Z,21.60
2019-03-25T17:22:50.898Z,21.27
2019-03-25T17:25:21.788Z,22.57
2019-03-25T17:27:53.190Z,22.47
2019-03-25T17:30:24.572Z,21.87
2019-03-25T17:32:56.713Z,19.87
2019-03-25T17:35:27.681Z,20.33
2019-03-25T17:37:59.727Z,19.10
2019-03-25T17:40:30.698Z,20.03
2019-03-25T17:43:01.956Z,20.07
2019-03-25T17:45:32.808Z,18.43
2019-03-25T17:48:04.501Z,20.27
2019-03-25T17:50:35.667Z,14.90
2019-03-25T17:53:06.634Z,18.53
2019-03-25T17:55:37.951Z,20.30
2019-03-25T17:58:09.219Z,18.23
2019-03-25T18:01:32.436Z,21.23
2019-03-25T18:04:01.400Z,19.87
2019-03-25T18:06:32.402Z,18.80
2019-03-25T18:09:07.226Z,19.03
2019-03-25T18:11:38.131Z,20.93
2019-03-25T18:14:09.663Z,20.07
2019-03-25T18:16:40.785Z,19.60
2019-03-25T18:19:12.058Z,19.73
2019-03-25T18:21:42.898Z,20.37
2019-03-25T18:24:14.043Z,18.97
2019-03-25T18:26:45.103Z,18.37
2019-03-25T18:29:17.123Z,20.43
2019-03-25T18:31:48.280Z,19.30
2019-03-25T18:34:19.277Z,23.90
2019-03-25T18:36:50.159Z,20.93
2019-03-25T18:39:21.198Z,18.67
2019-03-25T18:41:52.440Z,18.60
2019-03-25T18:44:23.525Z,18.97
2019-03-25T18:46:54.732Z,17.70
2019-03-25T18:49:25.642Z,17.63
2019-03-25T18:51:56.656Z,18.50
2019-03-25T18:54:27.901Z,16.57
2019-03-25T18:56:59.427Z,15.60
2019-03-25T18:59:30.323Z,34.33
2019-03-25T19:02:01.507Z,28.07
2019-03-25T19:04:32.606Z,26.13
2019-03-25T19:07:03.575Z,24.17
2019-03-25T19:09:34.899Z,19.33
2019-03-25T19:12:06.039Z,17.13
2019-03-25T19:14:36.949Z,15.67
2019-03-25T19:17:08.174Z,16.13
2019-03-25T19:19:40.177Z,14.83
2019-03-25T19:22:12.938Z,13.17
2019-03-25T19:24:44.287Z,14.87
2019-03-25T19:27:17.558Z,20.03
2019-03-25T19:29:48.995Z,15.03
2019-03-25T19:32:20.123Z,15.90
2019-03-25T19:34:51.006Z,18.00
2019-03-25T19:37:21.953Z,18.23
2019-03-25T19:39:54.126Z,18.43
2019-03-25T19:42:25.214Z,18.60
2019-03-25T19:44:56.405Z,20.00
2019-03-25T19:47:27.790Z,19.10
2019-03-25T19:49:58.849Z,19.47
2019-03-25T19:52:30.012Z,18.53
2019-03-25T19:55:01.081Z,15.60
2019-03-25T19:57:32.460Z,16.07
2019-03-25T20:00:04.506Z,15.60
2019-03-25T20:02:35.430Z,16.33
2019-03-25T20:05:06.897Z,15.10
2019-03-25T20:07:39.367Z,16.50
2019-03-25T20:10:17.408Z,16.03
2019-03-25T20:12:48.596Z,17.93
2019-03-25T20:15:19.889Z,17.07
2019-03-25T20:17:50.736Z,17.30
2019-03-25T20:20:21.717Z,17.27
2019-03-25T20:22:52.909Z,17.80
2019-03-25T20:25:24.329Z,17.63
2019-03-25T20:27:55.603Z,18.63
2019-03-25T20:30:26.767Z,16.93
2019-03-25T20:32:57.931Z,16.00
2019-03-25T20:35:29.900Z,15.67
2019-03-25T20:38:00.819Z,16.60
2019-03-25T20:40:32.213Z,18.17
2019-03-25T20:43:03.343Z,17.93
2019-03-25T20:45:34.592Z,15.80
2019-03-25T20:48:05.568Z,15.43
2019-03-25T20:50:36.796Z,17.27
2019-03-25T20:53:08.122Z,16.37
2019-03-25T20:55:39.093Z,18.67
2019-03-25T20:58:10.251Z,19.03
2019-03-25T21:00:55.701Z,16.00
2019-03-25T21:03:26.724Z,14.90
2019-03-25T21:05:57.703Z,14.13
2019-03-25T21:08:28.759Z,14.87
2019-03-25T21:10:59.748Z,14.53
2019-03-25T21:13:30.677Z,13.43
2019-03-25T21:16:02.005Z,13.03
2019-03-25T21:18:32.994Z,13.77
2019-03-25T21:21:04.180Z,15.37
2019-03-25T21:23:35.395Z,13.83
2019-03-25T21:26:06.547Z,18.40
2019-03-25T21:28:37.722Z,20.13
2019-03-25T21:31:08.608Z,23.93
2019-03-25T21:33:39.489Z,22.13
2019-03-25T21:36:11.878Z,20.47
2019-03-25T21:38:43.069Z,21.20
2019-03-25T21:41:14.139Z,20.63
2019-03-25T21:43:45.401Z,17.50
2019-03-25T21:46:16.557Z,20.73
2019-03-25T21:48:47.498Z,20.70
2019-03-25T21:51:18.893Z,21.07
2019-03-25T21:53:52.987Z,20.53
2019-03-25T21:56:22.873Z,21.20
2019-03-25T21:58:53.963Z,21.73
2019-03-25T22:01:24.890Z,21.27
2019-03-25T22:03:56.193Z,19.73
2019-03-25T22:06:27.168Z,19.57
2019-03-25T22:08:58.083Z,20.70
2019-03-25T22:11:29.553Z,17.83
2019-03-25T22:14:01.659Z,16.77
2019-03-25T22:16:32.651Z,18.40
2019-03-25T22:19:03.930Z,16.90
2019-03-25T22:21:35.263Z,15.23
2019-03-25T22:24:06.206Z,15.77
2019-03-25T22:26:37.252Z,17.93
2019-03-25T22:29:09.360Z,16.27
2019-03-25T22:31:40.333Z,17.00
2019-03-25T22:34:11.507Z,15.63
2019-03-25T22:36:42.381Z,16.43
2019-03-25T22:39:13.457Z,15.07
2019-03-25T22:41:44.645Z,15.37
2019-03-25T22:44:15.488Z,14.97
2019-03-25T22:46:46.746Z,14.67
2019-03-25T22:49:17.692Z,15.03
2019-03-25T22:51:48.646Z,14.67
2019-03-25T22:54:19.690Z,15.17
2019-03-25T22:56:50.790Z,13.43
2019-03-25T22:59:21.755Z,15.30
2019-03-25T23:01:52.595Z,13.17
2019-03-25T23:04:23.722Z,13.63
2019-03-25T23:06:54.903Z,12.53
2019-03-25T23:09:26.243Z,11.87
2019-03-25T23:11:59.215Z,11.70
2019-03-25T23:14:30.177Z,12.67
2019-03-25T23:17:01.376Z,13.90
2019-03-25T23:19:32.253Z,10.70
2019-03-25T23:22:03.092Z,9.87
2019-03-25T23:24:34.364Z,10.00
2019-03-25T23:27:05.500Z,8.53
2019-03-25T23:29:36.429Z,8.53
2019-03-25T23:32:07.487Z,10.10
2019-03-25T23:34:38.505Z,9.47
2019-03-25T23:37:09.554Z,9.80
2019-03-25T23:39:40.696Z,9.03
2019-03-25T23:42:13.298Z,9.97
2019-03-25T23:44:44.715Z,12.17
2019-03-25T23:47:15.747Z,10.27
2019-03-25T23:49:46.757Z,10.37
2019-03-25T23:52:18.005Z,10.40
2019-03-25T23:54:49.350Z,10.27
2019-03-25T23:57:20.291Z,10.40
2019-03-25T23:59:51.667Z,11.47
